Tower Lakes, Illinois
Current Conditions -  °F | °C
As of 8:52 AM on Monday 24 Nov 2014 (Local Time) from KPWK Reporting Station
Light Rain Light Rain  
Wind Chill: 36°   Ceiling: 800
Heat Index: 43°   Visibility: 2.5mi
Dew Point: 40°   Wind: 14mph
Humidity: 89%   Direction: 250°WSW
Pressure: 29.15"   Gusts: 23mph
Location:  42.1512°N, 88.1636°W
Report Text: KPWK 241452Z 25012G20KT 2 1/2SM -RA BR BKN008 OVC014 06/04 A2915 RMK AO2 CIG 006V010 SLP871 P0005 60007 T00610044 53019
Loading
Personal Weather Stations






























Interactive Weather Map New forecast layout! Learn more

10-Day Weather Forecast

Advertisements
Track Severe Weather on mobile